Time;durP1;ratioP1;P1;durP2;ratioP2;P2;SDS_P1;SDS_P2;PMS_P1;PMS_P2;Temp;Humidity;BMP_temperature;BMP_pressure;BME280_temperature;BME280_humidity;BME280_pressure;Samples;Min_cycle;Max_cycle;Signal;HPM_P1;HPM_P2
2021/11/19 00:01:12;;;;;;;;;37.33;30.00;;;;;9.87;69.93;102944.25;4957195;28;45479;-67
2021/11/19 00:03:37;;;;;;;;;34.33;30.00;;;;;9.86;69.62;102943.41;4969730;28;46230;-69
2021/11/19 00:06:03;;;;;;;;;33.00;28.67;;;;;9.94;69.91;102947.50;4973301;28;45344;-67
2021/11/19 00:08:29;;;;;;;;;36.00;31.25;;;;;10.01;69.41;102952.47;4972170;28;45377;-67
2021/11/19 00:10:57;;;;;;;;;35.50;30.25;;;;;10.02;69.46;102954.19;4980383;28;45630;-69
2021/11/19 00:13:23;;;;;;;;;37.67;31.00;;;;;10.04;69.69;102951.50;4972840;28;45390;-69
2021/11/19 00:15:49;;;;;;;;;46.67;32.33;;;;;10.09;69.31;102949.56;4975526;28;45541;-67
2021/11/19 00:18:15;;;;;;;;;38.50;31.75;;;;;10.10;69.17;102945.19;4975149;28;45478;-68
2021/11/19 00:20:41;;;;;;;;;42.33;31.33;;;;;10.11;69.24;102941.66;4976651;28;45454;-69
2021/11/19 00:23:07;;;;;;;;;38.00;28.33;;;;;10.13;69.08;102947.69;4970981;28;46382;-68
2021/11/19 00:25:34;;;;;;;;;35.00;25.00;;;;;10.15;69.22;102938.00;4965301;28;45282;-67
2021/11/19 00:27:59;;;;;;;;;33.67;28.00;;;;;10.17;69.21;102946.66;4990700;28;45822;-67
2021/11/19 00:30:27;;;;;;;;;36.67;30.00;;;;;10.11;69.04;102941.66;4974972;28;45485;-68
2021/11/19 00:32:53;;;;;;;;;36.67;30.00;;;;;10.03;69.12;102934.91;4971137;28;47601;-67
2021/11/19 00:35:20;;;;;;;;;32.33;24.33;;;;;10.00;69.11;102935.03;4964996;28;45548;-68
2021/11/19 00:37:49;;;;;;;;;31.00;25.00;;;;;10.03;68.93;102937.53;4968950;28;45517;-68
2021/11/19 00:40:22;;;;;;;;;32.33;23.67;;;;;10.00;68.95;102929.78;4970222;28;45337;-68
2021/11/19 00:42:47;;;;;;;;;31.00;25.00;;;;;9.98;68.83;102936.00;4970607;28;45365;-68
2021/11/19 00:45:13;;;;;;;;;31.00;26.00;;;;;9.99;69.16;102935.94;4973731;27;45476;-68
2021/11/19 00:47:38;;;;;;;;;37.00;27.00;;;;;10.00;68.83;102936.78;4978697;28;45547;-67
2021/11/19 00:50:08;;;;;;;;;24.67;19.00;;;;;10.00;68.68;102932.41;4978099;28;45527;-67
2021/11/19 00:52:33;;;;;;;;;33.33;25.67;;;;;9.98;68.70;102934.22;4968309;28;46336;-68
2021/11/19 00:54:58;;;;;;;;;29.00;25.00;;;;;9.98;69.32;102931.59;4970873;28;45557;-67
2021/11/19 00:57:24;;;;;;;;;31.00;24.67;;;;;9.99;68.90;102930.69;4972530;28;45391;-67
2021/11/19 00:59:49;;;;;;;;;40.00;29.67;;;;;10.00;68.70;102932.41;4975182;28;45621;-68
2021/11/19 01:02:22;;;;;;;;;39.67;26.00;;;;;10.05;69.01;102934.84;4976103;28;45423;-69
2021/11/19 01:04:48;;;;;;;;;39.33;28.00;;;;;10.04;68.71;102933.13;4970563;28;45358;-68
2021/11/19 01:07:16;;;;;;;;;35.33;26.00;;;;;10.03;68.63;102932.28;4970260;28;45350;-67
2021/11/19 01:09:46;;;;;;;;;38.00;27.33;;;;;10.03;69.09;102921.78;4968227;28;45472;-68
2021/11/19 01:12:15;;;;;;;;;35.00;29.00;;;;;10.07;69.35;102930.41;4970515;28;45459;-67
2021/11/19 01:14:52;;;;;;;;;43.33;32.33;;;;;10.06;69.05;102924.28;4970034;28;45620;-68
2021/11/19 01:17:25;;;;;;;;;45.33;30.67;;;;;10.07;68.78;102923.38;4968157;28;45417;-68
2021/11/19 01:20:07;;;;;;;;;30.33;25.00;;;;;10.06;68.76;102916.41;4969338;28;45551;-69
2021/11/19 01:22:35;;;;;;;;;33.00;23.33;;;;;10.08;69.00;102927.72;4974506;28;47514;-70
2021/11/19 01:25:01;;;;;;;;;29.67;24.67;;;;;10.10;68.51;102918.94;4973089;28;45613;-67
2021/11/19 01:27:26;;;;;;;;;33.00;25.00;;;;;10.12;69.15;102910.09;4973456;28;45331;-68
2021/11/19 01:29:52;;;;;;;;;36.33;30.33;;;;;10.16;68.47;102910.81;4970833;28;45597;-69
2021/11/19 01:32:21;;;;;;;;;35.33;28.33;;;;;10.17;68.76;102920.41;4970688;28;46281;-68
2021/11/19 01:34:47;;;;;;;;;38.00;32.67;;;;;10.17;68.71;102917.78;4975731;28;45608;-67
2021/11/19 01:37:14;;;;;;;;;36.33;33.00;;;;;10.20;68.36;102915.06;4972420;28;45411;-65
2021/11/19 01:39:40;;;;;;;;;34.33;25.00;;;;;10.23;68.29;102909.69;4971888;28;45365;-69
2021/11/19 01:42:42;;;;;;;;;36.00;26.00;;;;;10.24;68.57;102912.25;4974720;28;46064;-71
2021/11/19 01:45:17;;;;;;;;;34.33;24.33;;;;;10.26;68.33;102900.81;4960155;28;45497;-68
2021/11/19 01:47:47;;;;;;;;;32.00;24.00;;;;;10.16;68.03;102914.31;4965299;28;45480;-74
2021/11/19 01:50:24;;;;;;;;;30.00;22.33;;;;;9.94;68.23;102909.00;4963681;28;45467;-74
2021/11/19 01:52:59;;;;;;;;;32.67;24.00;;;;;9.75;68.55;102907.03;4971265;28;46125;-73
2021/11/19 01:55:29;;;;;;;;;31.00;22.00;;;;;9.61;69.15;102901.41;4968875;28;45705;-74
2021/11/19 01:58:05;;;;;;;;;27.33;25.00;;;;;9.52;68.63;102907.00;4970178;28;45483;-76
2021/11/19 02:00:42;;;;;;;;;29.00;19.00;;;;;9.36;69.42;102896.19;4967738;28;45388;-69
2021/11/19 02:03:10;;;;;;;;;21.33;16.00;;;;;9.24;69.81;102898.31;4971715;28;45661;-72
2021/11/19 02:05:58;;;;;;;;;24.33;21.33;;;;;9.37;70.28;102892.66;4969332;28;45601;-72
2021/11/19 02:08:25;;;;;;;;;30.00;22.33;;;;;9.48;70.14;102897.50;4976058;28;45493;-71
2021/11/19 02:11:00;;;;;;;;;36.67;25.67;;;;;9.46;69.89;102908.06;4968132;28;45293;-72
2021/11/19 02:13:34;;;;;;;;;22.33;18.67;;;;;9.46;69.70;102905.44;4967996;28;46367;-74
2021/11/19 02:16:14;;;;;;;;;30.00;25.00;;;;;9.39;69.44;102904.81;4954151;28;45611;-70
2021/11/19 02:18:55;;;;;;;;;26.00;22.67;;;;;9.33;69.84;102901.53;4970716;28;45386;-73
2021/11/19 02:21:33;;;;;;;;;24.00;18.00;;;;;9.27;70.06;102899.13;4973888;28;45331;-72
2021/11/19 02:24:07;;;;;;;;;24.67;18.00;;;;;9.22;70.18;102883.53;4966872;28;46855;-73
2021/11/19 02:26:39;;;;;;;;;27.33;23.00;;;;;9.24;70.49;102893.06;4967485;28;45321;-72
2021/11/19 02:29:07;;;;;;;;;22.67;17.00;;;;;9.21;70.53;102895.78;4972240;28;45285;-73
2021/11/19 02:31:46;;;;;;;;;31.33;23.00;;;;;9.21;71.07;102894.91;4972121;28;45533;-71
2021/11/19 02:34:11;;;;;;;;;31.00;24.00;;;;;9.24;70.08;102892.22;4970675;28;47118;-73
2021/11/19 02:36:47;;;;;;;;;25.67;21.33;;;;;9.21;70.44;102897.53;4973231;28;45475;-73
2021/11/19 02:39:22;;;;;;;;;30.33;22.33;;;;;9.19;70.46;102891.50;4972595;28;45660;-73
2021/11/19 02:41:53;;;;;;;;;35.00;27.00;;;;;9.14;70.61;102890.81;4972092;28;45593;-73
2021/11/19 02:44:23;;;;;;;;;41.67;24.67;;;;;9.08;71.07;102897.09;4971935;28;46279;-75
2021/11/19 02:46:57;;;;;;;;;32.67;28.33;;;;;9.06;70.97;102894.53;4971694;28;45379;-73
2021/11/19 02:49:23;;;;;;;;;30.00;21.67;;;;;9.01;70.80;102885.97;4970774;28;45454;-73
2021/11/19 02:51:49;;;;;;;;;28.33;23.33;;;;;8.96;71.04;102893.13;4972732;28;45372;-69
2021/11/19 02:54:19;;;;;;;;;29.67;21.33;;;;;8.91;71.29;102889.78;4968220;28;45440;-74
2021/11/19 02:56:46;;;;;;;;;29.67;22.00;;;;;8.88;71.22;102901.22;4972572;28;45779;-74
2021/11/19 02:59:12;;;;;;;;;38.00;23.33;;;;;8.85;71.62;102896.09;4970225;28;45523;-75
2021/11/19 03:01:43;;;;;;;;;31.33;23.00;;;;;8.83;71.64;102897.06;4971315;28;45456;-74
2021/11/19 03:04:29;;;;;;;;;36.00;24.67;;;;;8.79;71.69;102890.19;4971290;28;46126;-73
2021/11/19 03:06:57;;;;;;;;;28.50;26.00;;;;;8.73;71.86;102891.22;4973868;28;45513;-71
2021/11/19 03:09:33;;;;;;;;;31.00;23.00;;;;;8.70;72.07;102884.31;4977724;28;45589;-75
2021/11/19 03:12:00;;;;;;;;;25.67;22.33;;;;;8.66;72.19;102884.50;4979533;28;45311;-76
2021/11/19 03:14:26;;;;;;;;;39.75;28.00;;;;;8.64;72.39;102887.16;4974650;28;46330;-73
2021/11/19 03:16:54;;;;;;;;;33.50;26.00;;;;;8.64;72.15;102892.41;4975633;28;45320;-74
2021/11/19 03:19:20;;;;;;;;;33.00;28.67;;;;;8.64;72.31;102892.41;4975728;28;45488;-74
2021/11/19 03:21:46;;;;;;;;;27.00;24.33;;;;;8.66;72.58;102889.72;4973904;28;45424;-72
2021/11/19 03:24:13;;;;;;;;;35.00;23.00;;;;;8.65;72.50;102873.13;4974928;28;45407;-71
2021/11/19 03:26:39;;;;;;;;;26.67;21.00;;;;;8.65;72.43;102881.00;4971497;28;45633;-74
2021/11/19 03:29:07;;;;;;;;;26.67;22.33;;;;;8.63;72.51;102874.09;4969068;28;45284;-71
2021/11/19 03:31:33;;;;;;;;;32.00;24.33;;;;;8.65;72.73;102880.16;4972451;28;45511;-75
2021/11/19 03:33:59;;;;;;;;;29.67;26.00;;;;;8.64;72.56;102875.81;4974175;27;46605;-73
2021/11/19 03:36:25;;;;;;;;;27.33;24.33;;;;;8.65;72.60;102875.75;4979799;28;45762;-77
2021/11/19 03:38:56;;;;;;;;;30.00;24.33;;;;;8.64;72.88;102881.06;4972284;28;45364;-78
2021/11/19 03:41:25;;;;;;;;;27.00;21.67;;;;;8.65;72.56;102873.13;4969837;28;45250;-78
2021/11/19 03:43:58;;;;;;;;;33.00;22.00;;;;;8.64;72.22;102870.56;4969912;28;45404;-78
2021/11/19 03:46:29;;;;;;;;;21.33;18.00;;;;;8.59;72.35;102870.72;4969400;28;45711;-81
2021/11/19 03:48:55;;;;;;;;;28.00;20.67;;;;;8.52;72.08;102861.34;4972956;28;45450;-80
2021/11/19 03:51:33;;;;;;;;;27.00;22.00;;;;;8.43;72.30;102868.56;4974718;28;45270;-79
2021/11/19 03:53:59;;;;;;;;;33.33;22.00;;;;;8.36;72.20;102877.50;4973164;28;45454;-81
2021/11/19 03:56:26;;;;;;;;;27.00;21.00;;;;;8.29;72.51;102875.09;4966678;28;45369;-81
2021/11/19 03:58:52;;;;;;;;;25.00;19.67;;;;;8.24;72.80;102872.66;4972157;28;45462;-81
2021/11/19 04:01:24;;;;;;;;;27.00;19.67;;;;;8.23;72.95;102871.78;4971821;28;45419;-79
2021/11/19 04:03:51;;;;;;;;;26.67;21.67;;;;;8.21;72.62;102872.72;4973082;28;46334;-82
2021/11/19 04:06:20;;;;;;;;;23.00;20.00;;;;;8.20;72.77;102868.38;4974698;28;45486;-82
2021/11/19 04:08:45;;;;;;;;;25.67;23.00;;;;;8.22;73.46;102879.69;4971360;28;45359;-69
2021/11/19 04:11:11;;;;;;;;;24.00;20.00;;;;;8.34;73.69;102874.09;4969856;28;45384;-69
2021/11/19 04:13:38;;;;;;;;;21.00;18.00;;;;;8.48;73.37;102878.06;4973155;28;46252;-68
2021/11/19 04:16:08;;;;;;;;;23.00;19.00;;;;;8.62;73.32;102878.50;4971249;28;45515;-68
2021/11/19 04:18:33;;;;;;;;;31.00;21.33;;;;;8.77;72.74;102881.53;4973012;28;45395;-69
2021/11/19 04:20:59;;;;;;;;;29.00;20.33;;;;;8.86;72.63;102873.34;4973756;28;45422;-68
2021/11/19 04:23:26;;;;;;;;;26.00;20.00;;;;;8.93;72.26;102877.50;4971395;28;45500;-68
2021/11/19 04:25:54;;;;;;;;;30.67;23.67;;;;;9.04;72.06;102875.38;4970166;28;45320;-69
2021/11/19 04:28:19;;;;;;;;;19.67;19.33;;;;;9.12;72.10;102875.13;4971163;28;45617;-68
2021/11/19 04:30:48;;;;;;;;;24.33;18.00;;;;;9.19;71.56;102881.88;4971059;28;45719;-68
2021/11/19 04:33:14;;;;;;;;;29.67;22.33;;;;;9.25;71.65;102888.69;4973138;28;45381;-69
2021/11/19 04:35:39;;;;;;;;;22.67;18.67;;;;;9.29;71.17;102879.81;4969122;28;45348;-69
2021/11/19 04:38:05;;;;;;;;;25.33;20.33;;;;;9.34;71.57;102877.88;4979930;28;45340;-70
2021/11/19 04:40:33;;;;;;;;;21.33;21.33;;;;;9.39;71.34;102881.19;4982508;28;45551;-68
2021/11/19 04:42:58;;;;;;;;;22.00;15.33;;;;;9.43;71.05;102873.22;4971241;28;46198;-69
2021/11/19 04:45:26;;;;;;;;;25.00;20.33;;;;;9.49;70.63;102868.59;4973035;28;45477;-69
2021/11/19 04:47:52;;;;;;;;;20.00;16.00;;;;;9.53;70.46;102870.19;4969911;28;45650;-69
2021/11/19 04:50:21;;;;;;;;;21.67;17.00;;;;;9.53;69.80;102875.44;4968968;28;45403;-68
2021/11/19 04:52:47;;;;;;;;;20.67;16.00;;;;;9.55;70.08;102876.25;4971054;28;45457;-69
2021/11/19 04:55:14;;;;;;;;;17.33;10.67;;;;;9.57;70.32;102876.19;4975286;28;45466;-68
2021/11/19 04:57:40;;;;;;;;;26.33;20.00;;;;;9.60;70.10;102878.72;4973018;28;45494;-69
2021/11/19 05:00:09;;;;;;;;;14.67;13.33;;;;;9.64;69.63;102882.94;5016391;28;45663;-68
2021/11/19 05:02:35;;;;;;;;;21.00;15.33;;;;;9.69;69.29;102877.53;4987489;27;46387;-68
2021/11/19 05:05:00;;;;;;;;;18.33;15.67;;;;;9.73;69.60;102880.00;5009326;27;45853;-68
2021/11/19 05:07:26;;;;;;;;;19.33;16.33;;;;;9.78;69.53;102881.59;4971157;28;45310;-68
2021/11/19 05:09:51;;;;;;;;;24.00;17.00;;;;;9.79;68.91;102878.06;4971308;28;45557;-68
2021/11/19 05:12:24;;;;;;;;;19.00;16.00;;;;;9.83;68.94;102879.66;4975153;28;46128;-68
2021/11/19 05:14:50;;;;;;;;;29.00;17.00;;;;;9.82;69.28;102875.31;5011380;28;45358;-68
2021/11/19 05:17:17;;;;;;;;;23.33;16.33;;;;;9.80;68.72;102871.91;5000211;27;45329;-69
2021/11/19 05:19:43;;;;;;;;;14.67;12.67;;;;;9.75;68.81;102872.91;4970844;28;45416;-69
2021/11/19 05:22:10;;;;;;;;;25.33;16.67;;;;;9.77;68.92;102869.38;4971265;28;45531;-68
2021/11/19 05:24:37;;;;;;;;;20.67;15.67;;;;;9.79;68.72;102868.41;4971654;28;45609;-69
2021/11/19 05:27:04;;;;;;;;;25.00;18.67;;;;;9.82;68.76;102863.06;4971472;28;45478;-67
2021/11/19 05:29:30;;;;;;;;;20.33;17.00;;;;;9.83;68.66;102864.75;4969804;28;45444;-69
2021/11/19 05:31:58;;;;;;;;;23.33;15.33;;;;;9.85;68.51;102855.06;4971302;28;46152;-68
2021/11/19 05:34:25;;;;;;;;;18.00;15.67;;;;;9.86;68.50;102867.28;4970938;28;45568;-69
2021/11/19 05:36:51;;;;;;;;;20.33;18.00;;;;;9.87;68.20;102866.38;4974162;28;45489;-70
2021/11/19 05:39:17;;;;;;;;;18.00;17.00;;;;;9.87;68.40;102866.38;4974006;28;45376;-70
2021/11/19 05:41:44;;;;;;;;;20.67;16.33;;;;;9.87;68.57;102868.13;4964272;28;47208;-68
2021/11/19 05:44:10;;;;;;;;;22.67;19.00;;;;;9.89;68.56;102872.41;4962642;28;45419;-68
2021/11/19 05:46:40;;;;;;;;;21.00;17.00;;;;;9.90;68.01;102870.66;4970188;28;45370;-69
2021/11/19 05:49:08;;;;;;;;;20.67;16.67;;;;;9.89;68.30;102872.41;4971466;28;45323;-68
2021/11/19 05:51:34;;;;;;;;;21.33;18.33;;;;;9.88;68.46;102868.06;4975371;28;46242;-68
2021/11/19 05:53:59;;;;;;;;;19.00;17.00;;;;;9.86;68.60;102875.16;4975623;28;45548;-68
2021/11/19 05:56:25;;;;;;;;;23.33;17.67;;;;;9.84;68.36;102873.50;4972408;28;45214;-68
2021/11/19 05:58:52;;;;;;;;;17.67;16.33;;;;;9.84;68.02;102882.22;4970686;28;45425;-69
2021/11/19 06:01:19;;;;;;;;;22.33;16.33;;;;;9.87;68.40;102876.00;4970067;28;46979;-69
2021/11/19 06:03:46;;;;;;;;;16.67;14.33;;;;;9.89;68.25;102884.69;4970882;28;45519;-70
2021/11/19 06:06:13;;;;;;;;;17.67;16.00;;;;;9.91;68.26;102880.22;4970681;28;45543;-70
2021/11/19 06:08:41;;;;;;;;;22.67;17.67;;;;;9.93;67.97;102885.44;4970323;28;45355;-69
2021/11/19 06:11:13;;;;;;;;;19.33;16.00;;;;;9.94;68.29;102882.75;4969325;28;45491;-69
2021/11/19 06:13:45;;;;;;;;;23.67;22.67;;;;;9.95;68.49;102884.47;4970082;28;45403;-70
2021/11/19 06:16:16;;;;;;;;;16.67;14.33;;;;;9.98;68.19;102880.88;4970268;28;45391;-68
2021/11/19 06:18:49;;;;;;;;;23.00;17.00;;;;;10.00;67.74;102877.28;4970695;28;45386;-69
2021/11/19 06:21:41;;;;;;;;;19.00;16.33;;;;;10.05;67.90;102879.72;4970357;28;46978;-68
2021/11/19 06:24:19;;;;;;;;;18.33;16.00;;;;;10.07;67.89;102878.75;4970368;28;63124;-67
2021/11/19 06:26:46;;;;;;;;;21.67;15.00;;;;;10.10;67.44;102874.28;4969423;28;45448;-68
2021/11/19 06:29:13;;;;;;;;;21.33;17.67;;;;;10.09;67.86;102883.94;4969237;28;45578;-69
2021/11/19 06:31:42;;;;;;;;;17.00;13.67;;;;;10.10;67.52;102887.44;4969958;28;45489;-68
2021/11/19 06:34:08;;;;;;;;;18.00;15.00;;;;;10.12;67.39;102890.84;4981520;28;45534;-69
2021/11/19 06:36:34;;;;;;;;;11.67;11.67;;;;;10.12;67.83;102882.94;4973093;28;45321;-69
2021/11/19 06:39:01;;;;;;;;;19.67;16.67;;;;;10.12;67.30;102881.19;4971942;28;45570;-68
2021/11/19 06:41:27;;;;;;;;;21.33;17.67;;;;;10.12;67.39;102881.19;4966910;28;46128;-68
2021/11/19 06:43:53;;;;;;;;;20.67;16.67;;;;;10.11;67.29;102883.91;4973828;28;45282;-68
2021/11/19 06:46:20;;;;;;;;;16.67;16.00;;;;;10.04;67.41;102878.88;4988872;28;45354;-70
2021/11/19 06:48:47;;;;;;;;;17.00;16.00;;;;;10.02;67.29;102880.69;4970642;28;45419;-69
2021/11/19 06:51:13;;;;;;;;;24.67;17.00;;;;;10.01;67.87;102897.34;4971443;28;46214;-70
2021/11/19 06:53:39;;;;;;;;;22.00;18.00;;;;;9.96;67.67;102896.66;4967655;28;45377;-69
2021/11/19 06:56:05;;;;;;;;;16.33;14.33;;;;;9.91;67.73;102891.59;4967742;28;45522;-69
2021/11/19 06:58:30;;;;;;;;;16.33;12.33;;;;;9.94;67.86;102881.88;4970089;28;45342;-68
2021/11/19 07:01:00;;;;;;;;;19.67;17.00;;;;;9.98;67.72;102889.59;4969660;28;47928;-69
2021/11/19 07:03:27;;;;;;;;;21.00;18.00;;;;;10.00;67.79;102892.16;4969326;28;45491;-68
2021/11/19 07:05:53;;;;;;;;;22.33;16.00;;;;;9.99;67.70;102896.56;4970902;28;45496;-69
2021/11/19 07:08:19;;;;;;;;;20.67;17.00;;;;;9.98;67.57;102894.84;4972906;28;45371;-69
2021/11/19 07:10:48;;;;;;;;;18.00;16.00;;;;;9.96;68.03;102901.91;4979619;28;47096;-69
2021/11/19 07:13:15;;;;;;;;;19.67;16.00;;;;;9.97;68.09;102908.88;4987374;28;45412;-69
2021/11/19 07:15:41;;;;;;;;;24.67;17.00;;;;;9.97;68.07;102913.28;4972923;28;45408;-69
2021/11/19 07:18:07;;;;;;;;;21.00;16.33;;;;;9.93;67.88;102915.16;4974789;28;45477;-68
2021/11/19 07:20:34;;;;;;;;;22.00;19.33;;;;;9.94;67.89;102922.13;4971702;28;47148;-68
2021/11/19 07:23:00;;;;;;;;;23.67;15.67;;;;;9.94;68.12;102922.13;4966045;28;45371;-69
2021/11/19 07:25:28;;;;;;;;;24.00;21.00;;;;;9.96;68.04;102922.06;4955320;28;45886;-69
2021/11/19 07:27:56;;;;;;;;;22.67;11.67;;;;;9.95;68.28;102921.22;4971410;28;45598;-69
2021/11/19 07:30:35;;;;;;;;;20.33;13.00;;;;;9.97;67.78;102924.63;4984633;28;45737;-69
2021/11/19 07:33:01;;;;;;;;;19.67;16.33;;;;;9.99;67.96;102929.81;4973670;28;45418;-69
2021/11/19 07:35:26;;;;;;;;;24.00;18.67;;;;;9.93;67.99;102920.41;4972063;28;45308;-68
2021/11/19 07:37:52;;;;;;;;;30.00;20.67;;;;;10.03;68.09;102939.31;4972002;28;45638;-68
2021/11/19 07:40:21;;;;;;;;;23.33;18.00;;;;;10.03;68.19;102928.81;4970582;28;47464;-68
2021/11/19 07:42:47;;;;;;;;;23.33;16.00;;;;;10.05;67.92;102943.59;4971475;28;45417;-67
2021/11/19 07:45:13;;;;;;;;;17.67;16.67;;;;;10.07;67.85;102935.66;4974313;28;45458;-70
2021/11/19 07:47:39;;;;;;;;;19.67;18.00;;;;;10.11;67.60;102942.50;4971909;28;45363;-68
2021/11/19 07:50:07;;;;;;;;;23.00;18.00;;;;;10.14;67.80;102938.91;4971466;28;45908;-67
2021/11/19 07:52:33;;;;;;;;;26.67;19.00;;;;;10.15;67.73;102943.25;4971681;28;45486;-69
2021/11/19 07:54:58;;;;;;;;;23.33;19.67;;;;;10.19;67.98;102942.22;4962906;28;45241;-69
2021/11/19 07:57:24;;;;;;;;;17.67;13.33;;;;;10.18;67.85;102948.38;4973664;28;45552;-69
2021/11/19 07:59:49;;;;;;;;;22.33;19.00;;;;;10.20;67.38;102947.41;4971664;28;45974;-70
2021/11/19 08:02:15;;;;;;;;;22.33;21.33;;;;;10.23;67.75;102949.91;4971490;28;45366;-70
2021/11/19 08:04:40;;;;;;;;;29.67;22.00;;;;;10.26;67.96;102956.00;4973628;28;47111;-69
2021/11/19 08:07:07;;;;;;;;;23.00;18.67;;;;;10.29;67.70;102956.75;4972851;28;45485;-70
2021/11/19 08:09:32;;;;;;;;;26.00;22.67;;;;;10.33;68.05;102957.47;4975493;28;47355;-69
2021/11/19 08:11:57;;;;;;;;;24.67;20.00;;;;;10.32;67.42;102951.34;4970910;28;45518;-69
2021/11/19 08:14:23;;;;;;;;;28.33;22.33;;;;;10.35;67.53;102950.38;4970062;28;45489;-69
2021/11/19 08:16:56;;;;;;;;;27.67;21.33;;;;;10.38;67.27;102955.56;4971829;28;45269;-69
2021/11/19 08:19:33;;;;;;;;;22.00;18.33;;;;;10.37;67.28;102954.69;4971761;28;46117;-70
2021/11/19 08:22:00;;;;;;;;;29.33;22.33;;;;;10.39;67.79;102963.41;4971574;28;45417;-68
2021/11/19 08:24:28;;;;;;;;;34.33;31.00;;;;;10.38;67.36;102956.41;4973922;28;45314;-69
2021/11/19 08:26:59;;;;;;;;;31.33;23.67;;;;;10.36;67.81;102958.22;4972575;28;45642;-70
2021/11/19 08:29:28;;;;;;;;;23.33;20.67;;;;;10.37;67.16;102959.94;4973859;28;45678;-68
2021/11/19 08:31:55;;;;;;;;;29.33;21.33;;;;;10.38;67.94;102958.19;4971477;28;45534;-69
2021/11/19 08:34:22;;;;;;;;;27.67;24.00;;;;;10.40;67.35;102956.34;4987697;28;45553;-70
2021/11/19 08:36:48;;;;;;;;;32.00;26.33;;;;;10.44;67.05;102959.72;4971596;28;45375;-69
2021/11/19 08:39:18;;;;;;;;;34.67;24.67;;;;;10.46;67.14;102950.88;4973400;28;45392;-71
2021/11/19 08:41:44;;;;;;;;;26.00;20.33;;;;;10.48;67.63;102948.19;4969533;28;45597;-71
2021/11/19 08:44:10;;;;;;;;;32.00;22.67;;;;;10.50;67.47;102951.63;4974526;28;45512;-69
2021/11/19 08:46:41;;;;;;;;;29.00;27.00;;;;;10.53;67.10;102948.84;4971542;28;45531;-68
2021/11/19 08:49:09;;;;;;;;;30.33;24.00;;;;;10.56;67.39;102954.00;4971968;28;46059;-69
2021/11/19 08:51:36;;;;;;;;;24.67;17.67;;;;;10.56;66.95;102943.50;4972763;28;45479;-69
2021/11/19 08:54:05;;;;;;;;;21.67;20.00;;;;;10.59;67.33;102948.63;4972857;28;45459;-70
2021/11/19 08:56:37;;;;;;;;;18.00;14.33;;;;;10.60;66.98;102952.09;4973897;28;45403;-69
2021/11/19 08:59:05;;;;;;;;;30.00;23.00;;;;;10.62;67.52;102947.66;4971927;28;45988;-69
2021/11/19 09:01:31;;;;;;;;;21.67;18.67;;;;;10.65;67.27;102948.41;4987172;28;45459;-70
2021/11/19 09:03:57;;;;;;;;;24.00;19.33;;;;;10.67;66.81;102949.19;4971595;28;45475;-69
2021/11/19 09:06:22;;;;;;;;;30.33;26.00;;;;;10.72;66.65;102947.22;4973160;28;45293;-70
2021/11/19 09:08:49;;;;;;;;;28.00;24.00;;;;;10.79;67.19;102947.00;4971440;28;45327;-68
2021/11/19 09:11:19;;;;;;;;;30.33;22.67;;;;;10.83;66.48;102953.84;4971474;28;45505;-69
2021/11/19 09:13:47;;;;;;;;;28.00;24.33;;;;;10.86;66.62;102951.09;4971675;28;45440;-69
2021/11/19 09:16:14;;;;;;;;;27.67;26.00;;;;;10.88;66.48;102958.00;4972682;28;45435;-70
2021/11/19 09:18:46;;;;;;;;;25.00;24.00;;;;;10.89;66.58;102957.06;4972366;28;45550;-69
2021/11/19 09:21:28;;;;;;;;;31.00;27.67;;;;;10.90;66.65;102952.69;4971436;28;45874;-71
2021/11/19 09:24:00;;;;;;;;;11.67;5.00;;;;;10.91;66.57;102951.78;4970038;28;45466;-69
2021/11/19 09:26:35;;;;;;;;;29.67;21.33;;;;;10.95;66.54;102955.97;4971330;28;45474;-67
2021/11/19 09:29:05;;;;;;;;;26.33;23.33;;;;;10.99;66.37;102956.69;4982308;28;46783;-70
2021/11/19 09:31:30;;;;;;;;;27.00;24.00;;;;;11.06;66.65;102958.16;4971448;28;45416;-69
2021/11/19 09:33:56;;;;;;;;;30.00;26.00;;;;;11.11;66.12;102963.25;4970929;28;45371;-70
2021/11/19 09:36:21;;;;;;;;;26.33;21.00;;;;;11.15;66.17;102967.47;4973444;28;45514;-69
2021/11/19 09:38:47;;;;;;;;;31.00;25.67;;;;;11.18;65.87;102972.59;4975575;28;46055;-69
2021/11/19 09:41:46;;;;;;;;;30.67;26.67;;;;;11.18;66.27;102968.19;4971179;28;45593;-69
2021/11/19 09:45:02;;;;;;;;;30.00;24.00;;;;;11.16;66.46;102963.94;4971263;28;45292;-68
2021/11/19 09:47:42;;;;;;;;;30.33;25.67;;;;;11.20;65.97;102965.50;4969503;28;45383;-69
2021/11/19 09:50:32;;;;;;;;;38.67;27.67;;;;;11.22;66.38;102971.53;4970801;28;46335;-68
2021/11/19 09:53:35;;;;;;;;;28.00;23.67;;;;;11.23;66.06;102968.88;4971141;28;45592;-70
2021/11/19 09:56:18;;;;;;;;;33.00;29.67;;;;;11.25;65.78;102968.81;4931794;28;45493;-68
2021/11/19 09:59:21;;;;;;;;;31.00;27.00;;;;;11.27;66.12;102971.38;4931937;28;45529;-69
2021/11/19 10:02:06;;;;;;;;;30.00;26.00;;;;;11.23;65.76;102966.25;4931386;28;45571;-69
2021/11/19 10:04:46;;;;;;;;;42.00;35.00;;;;;11.23;65.55;102966.25;4931724;28;45421;-69
2021/11/19 10:07:35;;;;;;;;;33.33;27.33;;;;;11.24;65.50;102959.19;4932615;28;45418;-69
2021/11/19 10:10:12;;;;;;;;;33.33;29.67;;;;;11.30;65.89;102960.69;4925396;28;45515;-68
2021/11/19 10:13:01;;;;;;;;;32.33;25.67;;;;;11.33;65.73;102950.91;4934552;28;45576;-69
2021/11/19 10:15:42;;;;;;;;;29.33;26.33;;;;;11.38;65.37;102953.34;4934171;28;45418;-69
2021/11/19 10:18:18;;;;;;;;;32.33;28.00;;;;;11.41;66.07;102952.38;4930747;28;45438;-68
2021/11/19 10:21:02;;;;;;;;;37.33;27.67;;;;;11.45;65.94;102951.31;4930932;28;45429;-68
2021/11/19 10:23:45;;;;;;;;;27.67;26.33;;;;;11.51;65.43;102945.81;4931952;28;46388;-69
2021/11/19 10:26:20;;;;;;;;;35.67;25.00;;;;;11.52;65.48;102948.38;4943765;28;45367;-69
2021/11/19 10:28:57;;;;;;;;;35.33;27.33;;;;;11.53;65.56;102947.44;4974882;28;45562;-69
2021/11/19 10:31:24;;;;;;;;;40.33;35.00;;;;;11.56;65.01;102951.72;4973170;28;45481;-70
2021/11/19 10:34:19;;;;;;;;;28.67;25.33;;;;;11.58;64.91;102949.88;4971677;28;47103;-70
2021/11/19 10:37:02;;;;;;;;;40.00;31.33;;;;;11.63;65.30;102944.41;4985493;28;45638;-69
2021/11/19 10:39:37;;;;;;;;;27.00;24.33;;;;;11.66;65.20;102946.91;4971339;28;45423;-68
2021/11/19 10:42:27;;;;;;;;;25.00;25.00;;;;;11.70;65.39;102949.34;4975386;28;45362;-69
2021/11/19 10:45:19;;;;;;;;;49.00;36.00;;;;;11.73;64.74;102951.84;4973486;28;46368;-68
2021/11/19 10:47:53;;;;;;;;;36.00;28.00;;;;;11.76;65.17;102947.38;4973199;28;45593;-68
2021/11/19 10:50:43;;;;;;;;;33.00;26.33;;;;;11.81;64.99;102938.34;4973613;28;45339;-68
2021/11/19 10:53:46;;;;;;;;;32.00;28.33;;;;;11.86;64.82;102940.78;4973788;28;45518;-68
2021/11/19 10:56:50;;;;;;;;;32.00;28.00;;;;;11.92;65.36;102937.84;4973739;28;46234;-69
2021/11/19 10:59:19;;;;;;;;;37.33;32.33;;;;;11.98;64.90;102936.75;4973076;28;45439;-68
2021/11/19 11:01:58;;;;;;;;;46.25;36.00;;;;;12.02;64.33;102928.63;4972807;28;45376;-68
2021/11/19 11:04:37;;;;;;;;;32.67;28.33;;;;;12.07;64.63;102925.81;4973103;28;45287;-69
2021/11/19 11:07:19;;;;;;;;;36.33;28.33;;;;;12.09;64.52;102933.63;4956557;28;47378;-70
2021/11/19 11:09:57;;;;;;;;;31.33;24.33;;;;;12.11;64.38;102926.53;4973381;28;45679;-68
2021/11/19 11:12:28;;;;;;;;;30.33;25.00;;;;;12.16;64.18;102927.19;4975247;28;45383;-69
2021/11/19 11:15:15;;;;;;;;;34.67;32.00;;;;;12.22;64.21;102937.41;4973852;28;45696;-69
2021/11/19 11:18:11;;;;;;;;;39.33;30.67;;;;;12.27;63.68;102926.66;4971474;28;47035;-68
2021/11/19 11:20:53;;;;;;;;;42.67;31.00;;;;;12.31;63.36;102928.22;4972142;28;45613;-69
2021/11/19 11:23:50;;;;;;;;;32.67;28.00;;;;;12.33;63.87;102932.50;4972849;27;45328;-68
2021/11/19 11:26:23;;;;;;;;;32.33;29.33;;;;;12.33;63.53;102924.59;4973408;28;45412;-69
2021/11/19 11:29:19;;;;;;;;;35.00;29.00;;;;;12.35;63.77;102914.84;4972696;28;47166;-70